Main page
METAR-TAF:

METAR-TAF

Airports :

Stanton Airfield

Stanton, Minnesota, United States

latitude: 44-28-32N, longitude: 093-00-59W, elevation: 918 ft

Current weather observation

The report was made 19 minutes ago, at 23:35 UTC
Wind 14 mph from the Southwest
Temperature 90°F
Humidity 41%
Pressure 29.75 in. Hg
Visibility: 10 miles
Clear sky

METAR: KSYN 012335Z AUTO 22012KT 10SM CLR 32/17 A2975 RMK AO2 T03160166

Time: 18:54 (23:54 UTC)


TAF: missing

Weather observations and forecasts of more than 4000 airports (METAR and TAF reports).

The available stations are represented by yellow and red dots on the map.

Hover mouse over dot to see the name of the station.

Then click to see weather observations and forecasts.

To change the map : click on the green buttons with a black cross to zoom in, on the green button with a dash to zoom out, or on the green arrows for adjacent maps.


METAR-TAF: